createdAt,value
2022-11-20T00:02:05.796Z,16.30
2022-11-20T00:05:09.044Z,16.37
2022-11-20T00:08:11.859Z,15.03
2022-11-20T00:11:21.082Z,14.65
2022-11-20T00:14:23.500Z,14.70
2022-11-20T00:17:26.021Z,16.37
2022-11-20T00:20:28.421Z,15.10
2022-11-20T00:23:31.576Z,14.80
2022-11-20T00:26:34.152Z,13.48
2022-11-20T00:29:36.610Z,9.23
2022-11-20T00:32:39.036Z,12.93
2022-11-20T00:35:41.422Z,15.57
2022-11-20T00:38:44.873Z,15.57
2022-11-20T00:41:47.248Z,14.90
2022-11-20T00:44:49.732Z,14.77
2022-11-20T00:47:52.058Z,13.05
2022-11-20T00:50:55.395Z,12.82
2022-11-20T00:53:58.796Z,12.97
2022-11-20T00:57:01.198Z,12.02
2022-11-20T01:00:04.044Z,13.75
2022-11-20T01:03:06.461Z,14.23
2022-11-20T01:06:12.996Z,12.95
2022-11-20T01:09:15.957Z,13.20
2022-11-20T01:12:18.340Z,12.85
2022-11-20T01:15:20.641Z,14.52
2022-11-20T01:18:23.066Z,16.98
2022-11-20T01:21:30.735Z,17.10
2022-11-20T01:24:33.254Z,16.97
2022-11-20T01:27:35.744Z,15.00
2022-11-20T01:30:38.105Z,15.45
2022-11-20T01:33:42.408Z,15.57
2022-11-20T01:36:45.790Z,14.80
2022-11-20T01:39:48.136Z,15.23
2022-11-20T01:43:21.108Z,14.80
2022-11-20T01:46:23.478Z,14.90
2022-11-20T01:49:40.504Z,14.57
2022-11-20T01:52:48.386Z,11.68
2022-11-20T01:55:56.339Z,14.30
2022-11-20T01:59:02.249Z,13.43
2022-11-20T02:02:04.737Z,10.85
2022-11-20T02:05:16.143Z,14.95
2022-11-20T02:08:21.044Z,14.55
2022-11-20T02:11:23.518Z,14.27
2022-11-20T02:14:27.702Z,12.70
2022-11-20T02:17:30.682Z,14.30
2022-11-20T02:20:33.776Z,13.18
2022-11-20T02:24:08.401Z,12.73
2022-11-20T02:27:13.669Z,13.97
2022-11-20T02:30:16.675Z,12.57
2022-11-20T02:33:19.065Z,14.65
2022-11-20T02:36:21.464Z,14.60
2022-11-20T02:39:26.730Z,13.65
2022-11-20T02:42:29.150Z,13.50
2022-11-20T02:45:31.619Z,10.30
2022-11-20T02:48:34.225Z,10.25
2022-11-20T02:51:36.737Z,12.57
2022-11-20T02:54:39.120Z,14.18
2022-11-20T02:57:41.631Z,13.50
2022-11-20T03:00:44.046Z,12.50
2022-11-20T03:03:46.639Z,12.45
2022-11-20T03:06:49.094Z,11.68
2022-11-20T03:09:51.550Z,12.13
2022-11-20T03:12:57.387Z,12.67
2022-11-20T03:15:59.847Z,4.37
2022-11-20T03:19:02.303Z,11.93
2022-11-20T03:22:04.847Z,9.85
2022-11-20T03:25:07.670Z,11.27
2022-11-20T03:28:10.141Z,12.50
2022-11-20T03:31:15.039Z,10.95
2022-11-20T03:34:17.473Z,13.30
2022-11-20T03:37:19.968Z,9.50
2022-11-20T03:40:22.440Z,13.95
2022-11-20T03:43:24.860Z,9.07
2022-11-20T03:46:28.938Z,9.60
2022-11-20T03:49:31.417Z,13.20
2022-11-20T03:52:33.812Z,12.57
2022-11-20T03:55:36.285Z,15.00
2022-11-20T03:58:43.111Z,14.67
2022-11-20T04:01:49.283Z,13.73
2022-11-20T04:04:52.039Z,9.75
2022-11-20T04:07:54.430Z,13.95
2022-11-20T04:10:56.843Z,15.27
2022-11-20T04:14:01.568Z,12.17
2022-11-20T04:17:04.996Z,9.00
2022-11-20T04:20:08.030Z,13.60
2022-11-20T04:23:10.419Z,12.63
2022-11-20T04:26:13.534Z,14.07
2022-11-20T04:29:16.077Z,11.23
2022-11-20T04:32:18.514Z,14.00
2022-11-20T04:35:20.949Z,11.23
2022-11-20T04:38:23.280Z,11.40
2022-11-20T04:41:28.198Z,12.82
2022-11-20T04:44:30.530Z,13.33
2022-11-20T04:47:32.884Z,14.00
2022-11-20T04:50:35.204Z,14.30
2022-11-20T04:53:38.682Z,14.85
2022-11-20T04:56:40.962Z,13.57
2022-11-20T04:59:43.485Z,14.53
2022-11-20T05:02:45.826Z,15.00
2022-11-20T05:05:48.297Z,15.00
2022-11-20T05:08:50.902Z,15.27
2022-11-20T05:11:53.276Z,17.10
2022-11-20T05:14:55.693Z,13.80
2022-11-20T05:17:58.172Z,13.13
2022-11-20T05:21:00.721Z,15.98
2022-11-20T05:24:03.203Z,14.77
2022-11-20T05:27:05.700Z,15.18
2022-11-20T05:30:09.234Z,16.77
2022-11-20T05:33:11.675Z,15.45
2022-11-20T05:36:16.205Z,17.58
2022-11-20T05:39:18.776Z,16.67
2022-11-20T05:42:33.399Z,16.10
2022-11-20T05:45:36.388Z,17.80
2022-11-20T05:48:40.473Z,17.00
2022-11-20T05:51:42.834Z,16.00
2022-11-20T05:54:45.287Z,16.15
2022-11-20T05:57:47.655Z,17.58
2022-11-20T06:00:50.041Z,17.57
2022-11-20T06:03:53.688Z,17.05
2022-11-20T06:06:56.076Z,14.70
2022-11-20T06:09:58.481Z,14.87
2022-11-20T06:13:00.980Z,16.30
2022-11-20T06:16:04.160Z,15.70
2022-11-20T06:19:06.631Z,18.23
2022-11-20T06:22:09.084Z,17.67
2022-11-20T06:25:11.697Z,15.68
2022-11-20T06:28:14.051Z,17.75
2022-11-20T06:31:19.381Z,16.67
2022-11-20T06:34:21.744Z,17.23
2022-11-20T06:37:24.099Z,16.80
2022-11-20T06:40:26.589Z,16.92
2022-11-20T06:43:30.215Z,17.35
2022-11-20T06:46:33.772Z,16.47
2022-11-20T06:49:38.290Z,17.77
2022-11-20T06:52:43.660Z,18.35
2022-11-20T06:55:47.907Z,16.60
2022-11-20T06:58:50.828Z,17.98
2022-11-20T07:01:53.633Z,17.23
2022-11-20T07:04:56.055Z,16.35
2022-11-20T07:07:59.095Z,15.98
2022-11-20T07:11:04.136Z,17.33
2022-11-20T07:14:06.736Z,17.23
2022-11-20T07:17:09.369Z,18.67
2022-11-20T07:20:12.809Z,15.55
2022-11-20T07:23:15.319Z,15.75
2022-11-20T07:26:17.885Z,17.33
2022-11-20T07:29:20.564Z,16.25
2022-11-20T07:32:23.332Z,14.97
2022-11-20T07:35:26.293Z,15.75
2022-11-20T07:38:28.977Z,16.80
2022-11-20T07:41:31.549Z,17.15
2022-11-20T07:44:34.005Z,17.60
2022-11-20T07:47:37.892Z,16.43
2022-11-20T07:50:40.237Z,17.02
2022-11-20T07:53:42.722Z,18.17
2022-11-20T07:56:45.058Z,15.65
2022-11-20T07:59:47.546Z,18.08
2022-11-20T08:02:50.098Z,18.17
2022-11-20T08:05:53.175Z,17.42
2022-11-20T08:08:55.711Z,19.55
2022-11-20T08:12:16.764Z,14.85
2022-11-20T08:15:19.309Z,14.98
2022-11-20T08:18:36.933Z,15.10
2022-11-20T08:21:39.740Z,16.25
2022-11-20T08:24:42.185Z,16.62
2022-11-20T08:27:44.588Z,13.35
2022-11-20T08:30:47.187Z,16.60
2022-11-20T08:33:49.884Z,14.43
2022-11-20T08:36:52.397Z,17.75
2022-11-20T08:39:55.339Z,17.35
2022-11-20T08:42:57.765Z,15.10
2022-11-20T08:46:00.132Z,14.27
2022-11-20T08:49:02.707Z,12.97
2022-11-20T08:52:05.185Z,14.85
2022-11-20T08:55:08.807Z,16.75
2022-11-20T08:58:11.194Z,16.75
2022-11-20T09:01:13.750Z,17.75
2022-11-20T09:04:16.873Z,15.83
2022-11-20T09:07:19.461Z,14.63
2022-11-20T09:10:24.342Z,17.00
2022-11-20T09:13:28.868Z,17.05
2022-11-20T09:16:31.271Z,14.55
2022-11-20T09:19:36.120Z,15.77
2022-11-20T09:22:41.410Z,16.12
2022-11-20T09:25:44.540Z,17.67
2022-11-20T09:28:47.022Z,15.35
2022-11-20T09:31:49.676Z,17.37
2022-11-20T09:34:52.069Z,17.83
2022-11-20T09:37:54.521Z,16.58
2022-11-20T09:40:59.375Z,16.50
2022-11-20T09:44:01.654Z,15.35
2022-11-20T09:47:04.091Z,15.35
2022-11-20T09:50:31.413Z,16.43
2022-11-20T09:54:11.446Z,14.82
2022-11-20T09:57:19.752Z,15.40
2022-11-20T10:00:23.262Z,16.98
2022-11-20T10:03:40.980Z,16.40
2022-11-20T10:07:10.409Z,15.17
2022-11-20T10:10:21.336Z,9.80
2022-11-20T10:13:39.658Z,15.18
2022-11-20T10:17:00.897Z,15.98
2022-11-20T10:21:04.462Z,16.00
2022-11-20T10:24:25.314Z,15.70
2022-11-20T10:27:46.004Z,16.83
2022-11-20T10:31:01.329Z,15.93
2022-11-20T10:34:25.224Z,17.08
2022-11-20T10:37:29.711Z,13.93
2022-11-20T10:40:52.777Z,15.77
2022-11-20T10:44:13.446Z,19.52
2022-11-20T10:47:17.829Z,19.77
2022-11-20T10:50:23.156Z,16.83
2022-11-20T10:53:28.396Z,18.05
2022-11-20T10:56:50.182Z,17.47
2022-11-20T11:00:04.801Z,19.75
2022-11-20T11:03:22.515Z,20.40
2022-11-20T11:06:49.253Z,18.95
2022-11-20T11:09:56.829Z,19.25
2022-11-20T11:12:59.328Z,10.20
2022-11-20T11:16:01.734Z,15.90
2022-11-20T11:19:12.960Z,16.75
2022-11-20T11:22:19.485Z,15.52
2022-11-20T11:25:25.850Z,14.68
2022-11-20T11:28:29.633Z,14.77
2022-11-20T11:31:34.541Z,14.50
2022-11-20T11:34:36.920Z,14.87
2022-11-20T11:37:40.407Z,13.43
2022-11-20T11:40:43.138Z,15.18
2022-11-20T11:44:16.191Z,13.70
2022-11-20T11:47:27.922Z,14.65
2022-11-20T11:50:32.289Z,14.38
2022-11-20T11:53:41.120Z,13.40
2022-11-20T11:56:45.307Z,15.40
2022-11-20T12:00:02.062Z,13.20
2022-11-20T12:03:43.153Z,16.05
2022-11-20T12:06:51.500Z,16.17
2022-11-20T12:09:58.939Z,18.05
2022-11-20T12:13:19.691Z,17.62
2022-11-20T12:16:22.439Z,15.97
2022-11-20T12:19:25.966Z,16.17
2022-11-20T12:22:37.345Z,15.35
2022-11-20T12:25:43.031Z,14.75
2022-11-20T12:29:08.264Z,15.18
2022-11-20T12:32:16.544Z,14.30
2022-11-20T12:35:51.321Z,16.10
2022-11-20T12:39:23.175Z,16.52
2022-11-20T12:43:13.813Z,16.02
2022-11-20T12:46:35.495Z,14.50
2022-11-20T12:50:03.649Z,16.43
2022-11-20T12:53:30.808Z,13.50
2022-11-20T12:57:03.573Z,16.73
2022-11-20T13:00:22.213Z,15.40
2022-11-20T13:03:49.012Z,14.80
2022-11-20T13:06:52.260Z,17.00
2022-11-20T13:09:55.560Z,18.33
2022-11-20T13:13:32.659Z,16.23
2022-11-20T13:17:04.750Z,16.55
2022-11-20T13:20:15.891Z,20.08
2022-11-20T13:23:29.432Z,17.03
2022-11-20T13:26:32.128Z,17.75
2022-11-20T13:29:36.925Z,17.90
2022-11-20T13:32:54.384Z,19.62
2022-11-20T13:36:21.148Z,18.08
2022-11-20T13:39:37.556Z,17.33
2022-11-20T13:43:17.873Z,16.98
2022-11-20T13:46:26.706Z,16.48
2022-11-20T13:49:43.828Z,16.33
2022-11-20T13:53:07.284Z,17.17
2022-11-20T13:56:39.115Z,15.03
2022-11-20T14:00:11.999Z,15.30
2022-11-20T14:03:28.413Z,14.87
2022-11-20T14:06:45.419Z,14.85
2022-11-20T14:10:07.147Z,14.57
2022-11-20T14:13:33.231Z,14.53
2022-11-20T14:16:37.947Z,14.05
2022-11-20T14:19:45.917Z,13.85
2022-11-20T14:22:55.105Z,14.02
2022-11-20T14:26:05.903Z,16.77
2022-11-20T14:29:31.449Z,15.97
2022-11-20T14:32:36.649Z,15.73
2022-11-20T14:35:49.081Z,14.68
2022-11-20T14:38:54.116Z,14.40
2022-11-20T14:41:56.950Z,14.50
2022-11-20T14:45:00.988Z,13.83
2022-11-20T14:48:03.766Z,15.10
2022-11-20T14:51:06.389Z,13.50
2022-11-20T14:54:18.784Z,12.88
2022-11-20T14:57:35.680Z,12.82
2022-11-20T15:00:38.847Z,11.47
2022-11-20T15:03:42.744Z,11.93
2022-11-20T15:06:55.587Z,12.60
2022-11-20T15:10:10.051Z,11.43
2022-11-20T15:13:16.953Z,10.43
2022-11-20T15:16:22.403Z,11.23
2022-11-20T15:19:27.778Z,11.77
2022-11-20T15:22:30.626Z,13.13
2022-11-20T15:25:33.575Z,14.05
2022-11-20T15:28:43.076Z,13.88
2022-11-20T15:31:46.483Z,13.47
2022-11-20T15:34:49.115Z,12.13
2022-11-20T15:37:51.899Z,13.27
2022-11-20T15:40:54.767Z,13.85
2022-11-20T15:43:57.569Z,12.55
2022-11-20T15:47:00.726Z,10.47
2022-11-20T15:50:03.503Z,10.23
2022-11-20T15:53:06.805Z,10.15
2022-11-20T15:56:16.329Z,10.38
2022-11-20T15:59:19.280Z,11.85
2022-11-20T16:02:22.031Z,10.53
2022-11-20T16:05:24.855Z,10.02
2022-11-20T16:08:27.839Z,9.52
2022-11-20T16:11:30.733Z,9.60
2022-11-20T16:14:52.220Z,9.63
2022-11-20T16:17:55.159Z,8.43
2022-11-20T16:20:58.006Z,8.00
2022-11-20T16:24:02.740Z,8.98
2022-11-20T16:27:05.685Z,10.00
2022-11-20T16:30:09.483Z,11.35
2022-11-20T16:33:14.828Z,10.37
2022-11-20T16:36:17.739Z,11.27
2022-11-20T16:39:23.888Z,9.95
2022-11-20T16:42:29.278Z,11.32
2022-11-20T16:45:34.036Z,9.55
2022-11-20T16:48:36.869Z,8.63
2022-11-20T16:51:40.197Z,9.05
2022-11-20T16:54:44.236Z,9.02
2022-11-20T16:57:46.802Z,7.37
2022-11-20T17:00:51.808Z,9.63
2022-11-20T17:04:08.897Z,9.37
2022-11-20T17:07:13.135Z,9.88
2022-11-20T17:10:16.494Z,10.50
2022-11-20T17:13:19.327Z,9.70
2022-11-20T17:16:24.290Z,10.35
2022-11-20T17:19:27.938Z,10.20
2022-11-20T17:22:32.090Z,10.20
2022-11-20T17:25:35.331Z,10.15
2022-11-20T17:28:39.688Z,10.45
2022-11-20T17:31:43.549Z,10.80
2022-11-20T17:34:46.895Z,10.53
2022-11-20T17:37:50.037Z,11.73
2022-11-20T17:40:52.557Z,11.55
2022-11-20T17:43:57.767Z,10.60
2022-11-20T17:47:00.793Z,11.45
2022-11-20T17:50:05.208Z,8.77
2022-11-20T17:53:09.100Z,9.13
2022-11-20T17:56:32.528Z,11.45
2022-11-20T17:59:35.601Z,8.10
2022-11-20T18:02:38.677Z,9.65
2022-11-20T18:05:41.601Z,10.00
2022-11-20T18:08:44.909Z,10.48
2022-11-20T18:11:47.372Z,10.68
2022-11-20T18:14:50.175Z,10.10
2022-11-20T18:17:53.130Z,10.90
2022-11-20T18:20:56.271Z,11.67
2022-11-20T18:23:59.345Z,12.10
2022-11-20T18:27:02.480Z,9.93
2022-11-20T18:30:05.957Z,9.95
2022-11-20T18:33:10.087Z,9.25
2022-11-20T18:36:19.149Z,9.30
2022-11-20T18:39:22.591Z,9.85
2022-11-20T18:42:44.117Z,6.53
2022-11-20T18:45:47.051Z,9.00
2022-11-20T18:48:50.111Z,7.03
2022-11-20T18:51:53.108Z,9.20
2022-11-20T18:54:56.154Z,8.43
2022-11-20T18:57:59.133Z,8.43
2022-11-20T19:01:08.942Z,8.30
2022-11-20T19:04:13.834Z,8.05
2022-11-20T19:07:17.312Z,7.83
2022-11-20T19:10:20.932Z,7.10
2022-11-20T19:13:24.045Z,9.10
2022-11-20T19:16:26.741Z,7.82
2022-11-20T19:19:29.886Z,9.55
2022-11-20T19:22:32.858Z,10.57
2022-11-20T19:25:38.290Z,8.65
2022-11-20T19:28:41.595Z,9.93
2022-11-20T19:31:44.636Z,6.18
2022-11-20T19:34:47.479Z,9.52
2022-11-20T19:37:52.131Z,9.07
2022-11-20T19:40:55.116Z,9.75
2022-11-20T19:43:58.691Z,8.30
2022-11-20T19:47:03.814Z,10.57
2022-11-20T19:50:07.301Z,9.98
2022-11-20T19:53:12.194Z,9.83
2022-11-20T19:56:15.237Z,11.73
2022-11-20T19:59:17.728Z,10.38
2022-11-20T20:02:20.576Z,10.10
2022-11-20T20:05:23.704Z,11.88
2022-11-20T20:08:26.677Z,11.87
2022-11-20T20:11:32.013Z,9.68
2022-11-20T20:14:35.522Z,9.30
2022-11-20T20:17:38.541Z,13.07
2022-11-20T20:20:41.975Z,12.98
2022-11-20T20:23:46.653Z,12.37
2022-11-20T20:26:52.304Z,12.40
2022-11-20T20:29:57.196Z,12.18
2022-11-20T20:33:01.748Z,12.48
2022-11-20T20:36:09.051Z,11.52
2022-11-20T20:39:12.398Z,13.50
2022-11-20T20:42:20.632Z,13.05
2022-11-20T20:45:23.651Z,12.60
2022-11-20T20:48:26.462Z,13.32
2022-11-20T20:51:29.812Z,14.15
2022-11-20T20:54:34.508Z,13.37
2022-11-20T20:57:38.167Z,13.20
2022-11-20T21:00:41.127Z,13.18
2022-11-20T21:03:43.884Z,13.65
2022-11-20T21:06:46.785Z,14.75
2022-11-20T21:09:49.826Z,12.53
2022-11-20T21:12:53.165Z,13.32
2022-11-20T21:15:56.053Z,13.25
2022-11-20T21:18:58.697Z,12.23
2022-11-20T21:22:01.819Z,13.95
2022-11-20T21:25:04.867Z,14.83
2022-11-20T21:28:08.599Z,14.60
2022-11-20T21:31:16.421Z,14.02
2022-11-20T21:34:20.591Z,13.62
2022-11-20T21:37:23.781Z,14.63
2022-11-20T21:40:26.446Z,15.07
2022-11-20T21:43:29.098Z,13.35
2022-11-20T21:46:33.382Z,13.45
2022-11-20T21:49:35.830Z,15.35
2022-11-20T21:52:38.384Z,14.05
2022-11-20T21:55:40.848Z,12.77
2022-11-20T21:58:44.143Z,13.00
2022-11-20T22:01:46.558Z,12.32
2022-11-20T22:04:49.329Z,12.35
2022-11-20T22:07:51.673Z,14.18
2022-11-20T22:11:06.341Z,12.13
2022-11-20T22:14:24.078Z,11.55
2022-11-20T22:17:45.450Z,12.63
2022-11-20T22:20:47.856Z,12.50
2022-11-20T22:23:51.106Z,9.82
2022-11-20T22:26:53.587Z,12.07
2022-11-20T22:29:55.945Z,13.10
2022-11-20T22:32:58.335Z,13.25
2022-11-20T22:36:08.529Z,10.80
2022-11-20T22:39:10.998Z,12.77
2022-11-20T22:42:13.321Z,12.57
2022-11-20T22:45:15.972Z,11.00
2022-11-20T22:48:18.345Z,14.65
2022-11-20T22:51:23.456Z,12.30
2022-11-20T22:54:26.022Z,13.70
2022-11-20T22:57:28.586Z,11.63
2022-11-20T23:00:31.064Z,12.10
2022-11-20T23:03:33.485Z,10.57
2022-11-20T23:06:36.057Z,9.65
2022-11-20T23:09:38.506Z,8.95
2022-11-20T23:12:40.982Z,9.63
2022-11-20T23:15:43.428Z,10.43
2022-11-20T23:18:46.495Z,10.60
2022-11-20T23:21:49.957Z,9.27
2022-11-20T23:24:52.314Z,7.15
2022-11-20T23:27:54.874Z,10.43
2022-11-20T23:30:57.980Z,10.27
2022-11-20T23:34:00.519Z,10.98
2022-11-20T23:37:02.892Z,10.60
2022-11-20T23:40:06.171Z,10.60
2022-11-20T23:43:17.795Z,9.67
2022-11-20T23:46:20.370Z,11.48
2022-11-20T23:49:22.755Z,9.82
2022-11-20T23:52:26.665Z,9.55
2022-11-20T23:55:29.306Z,11.48
2022-11-20T23:58:34.662Z,9.07
